Time;durP1;ratioP1;P1;durP2;ratioP2;P2;SDS_P1;SDS_P2;PMS_P1;PMS_P2;Temp;Humidity;BMP_temperature;BMP_pressure;BME280_temperature;BME280_humidity;BME280_pressure;Samples;Min_cycle;Max_cycle;Signal;HPM_P1;HPM_P2
2023/10/02 00:01:10;;;;;;;9.90;5.25;;;;;;;16.71;60.97;97848.31;4840172;29;20205;-84
2023/10/02 00:03:40;;;;;;;8.85;5.80;;;;;;;16.71;60.46;97861.47;4841070;29;20177;-84
2023/10/02 00:06:10;;;;;;;11.13;5.38;;;;;;;16.71;60.78;97849.13;4841130;29;20287;-84
2023/10/02 00:08:51;;;;;;;9.80;5.45;;;;;;;16.71;60.61;97857.00;4839309;29;20419;-84
2023/10/02 00:11:36;;;;;;;10.02;5.32;;;;;;;16.49;60.93;97844.16;4826890;29;20400;-84
2023/10/02 00:14:48;;;;;;;10.80;5.32;;;;;;;16.65;60.02;97852.81;4827267;29;20692;-84
2023/10/02 00:16:59;;;;;;;9.13;5.63;;;;;;;16.72;59.78;97839.38;4865211;29;20195;-84
2023/10/02 00:19:37;;;;;;;10.07;5.85;;;;;;;16.70;59.79;97846.75;4841464;29;20283;-84
2023/10/02 00:22:08;;;;;;;9.55;5.32;;;;;;;16.69;60.76;97843.34;4859198;29;20189;-84
2023/10/02 00:24:38;;;;;;;9.00;5.35;;;;;;;16.57;60.39;97848.91;4825780;29;20226;-84
2023/10/02 00:27:05;;;;;;;9.23;5.53;;;;;;;16.63;60.02;97850.44;4855696;29;20566;-84
2023/10/02 00:29:31;;;;;;;10.05;5.65;;;;;;;16.67;59.88;97848.88;4828604;29;20260;-84
2023/10/02 00:31:57;;;;;;;9.20;5.47;;;;;;;16.55;60.04;97843.09;4843888;29;20225;-84
2023/10/02 00:34:32;;;;;;;12.50;6.50;;;;;;;16.59;60.50;97844.16;4830474;29;20205;-84
2023/10/02 00:37:05;;;;;;;;;;;;;;;16.72;60.51;97839.38;4856775;29;20078;-84
2023/10/02 00:39:35;;;;;;;9.25;5.93;;;;;;;16.59;60.92;97846.00;4844196;29;20506;-84
2023/10/02 00:42:15;;;;;;;10.93;5.82;;;;;;;16.56;61.27;97849.94;4843417;29;20200;-84
2023/10/02 00:44:54;;;;;;;10.93;5.82;;;;;;;16.44;60.99;97846.81;4841515;29;20137;-84
2023/10/02 00:47:42;;;;;;;11.43;5.75;;;;;;;16.38;61.39;97845.22;4841836;29;21663;-84
2023/10/02 00:50:16;;;;;;;12.10;6.50;;;;;;;16.22;61.38;97847.09;4854994;29;20368;-84
2023/10/02 00:53:03;;;;;;;10.37;6.20;;;;;;;16.24;62.27;97851.03;4846396;29;20582;-85
2023/10/02 00:55:32;;;;;;;9.90;5.03;;;;;;;16.22;61.58;97844.47;4854610;29;20278;-84
2023/10/02 00:58:00;;;;;;;10.77;5.40;;;;;;;16.21;62.43;97841.06;4836587;29;20269;-84
2023/10/02 01:00:31;;;;;;;9.13;5.03;;;;;;;16.29;62.85;97845.75;4837562;29;20251;-84
2023/10/02 01:02:58;;;;;;;9.27;5.45;;;;;;;16.28;62.32;97841.56;4839521;29;20752;-84
2023/10/02 01:11:04;;;;;;;9.10;5.05;;;;;;;16.28;61.82;97838.16;4853320;29;20341;-84
2023/10/02 01:13:32;;;;;;;8.70;4.60;;;;;;;16.16;62.72;97841.06;4830261;29;20295;-84
2023/10/02 01:16:00;;;;;;;10.38;5.70;;;;;;;16.15;63.03;97834.22;4851613;29;20173;-84
2023/10/02 01:18:29;;;;;;;7.82;4.68;;;;;;;16.20;63.19;97839.47;4852517;29;20276;-84
2023/10/02 01:20:59;;;;;;;8.40;4.88;;;;;;;16.31;63.67;97837.63;4847346;29;20178;-84
2023/10/02 01:23:27;;;;;;;10.38;5.55;;;;;;;16.27;63.66;97833.94;4827613;29;20215;-84
2023/10/02 01:25:57;;;;;;;8.82;5.28;;;;;;;16.32;63.14;97843.69;4823653;29;20635;-84
2023/10/02 01:28:49;;;;;;;8.48;5.38;;;;;;;16.36;63.68;97834.19;4838451;29;20562;-84
2023/10/02 01:31:31;;;;;;;7.47;4.65;;;;;;;16.34;62.96;97842.34;4849844;29;20188;-84
2023/10/02 01:33:57;;;;;;;7.57;5.15;;;;;;;16.26;63.51;97838.44;4840836;29;20612;-84
2023/10/02 01:36:28;;;;;;;8.15;5.20;;;;;;;16.29;62.99;97829.22;4822458;29;20673;-84
2023/10/02 01:38:59;;;;;;;10.02;5.85;;;;;;;16.22;62.48;97826.84;4853951;29;20720;-83
2023/10/02 01:41:26;;;;;;;10.38;5.93;;;;;;;16.16;62.92;97825.31;4847368;29;20196;-84
2023/10/02 01:43:55;;;;;;;8.32;5.22;;;;;;;16.27;63.25;97840.00;4822850;29;20321;-84
2023/10/02 01:46:22;;;;;;;10.48;5.65;;;;;;;16.27;62.78;97839.22;4820130;29;20660;-84
2023/10/02 01:48:48;;;;;;;9.05;5.40;;;;;;;16.14;63.54;97821.34;4852714;29;20772;-84
2023/10/02 01:51:27;;;;;;;10.73;5.60;;;;;;;16.23;63.96;97820.56;4838328;29;20750;-84
2023/10/02 01:54:03;;;;;;;9.07;5.43;;;;;;;15.94;64.46;97822.94;4839229;29;20659;-84
2023/10/02 01:56:30;;;;;;;8.63;6.15;;;;;;;15.83;65.29;97832.63;4839176;29;20358;-84
2023/10/02 01:59:14;;;;;;;10.05;5.88;;;;;;;15.84;65.45;97831.59;4824382;29;20488;-84
2023/10/02 02:01:52;;;;;;;10.25;5.78;;;;;;;15.93;65.69;97831.09;4848594;29;20167;-84
2023/10/02 02:04:36;;;;;;;10.43;5.88;;;;;;;16.18;64.74;97830.28;4834754;29;20295;-84
2023/10/02 02:07:02;;;;;;;9.23;5.20;;;;;;;16.16;64.22;97822.69;4843195;29;20273;-84
2023/10/02 02:09:33;;;;;;;10.05;5.38;;;;;;;16.15;63.94;97836.84;4839005;29;20287;-84
2023/10/02 02:12:07;;;;;;;9.32;5.47;;;;;;;16.27;63.95;97828.69;4829752;29;20230;-84
2023/10/02 02:14:51;;;;;;;8.18;5.25;;;;;;;16.25;64.73;97836.06;4839642;29;20409;-84
2023/10/02 02:17:18;;;;;;;10.02;5.20;;;;;;;16.31;63.70;97832.34;4854293;29;20363;-84
2023/10/02 02:19:49;;;;;;;10.35;6.05;;;;;;;16.29;64.76;97830.00;4838664;29;20782;-84
2023/10/02 02:22:26;;;;;;;9.57;5.68;;;;;;;16.41;64.23;97828.94;4830581;29;20286;-84
2023/10/02 02:24:58;;;;;;;8.32;5.35;;;;;;;16.22;65.07;97813.72;4839293;29;20204;-84
2023/10/02 02:27:24;;;;;;;8.23;5.10;;;;;;;16.14;64.85;97816.88;4838104;29;20192;-84
2023/10/02 02:29:54;;;;;;;10.45;5.45;;;;;;;16.40;64.49;97829.97;4824921;29;20713;-84
2023/10/02 02:32:20;;;;;;;9.05;5.30;;;;;;;16.41;63.82;97831.56;4858306;29;20189;-84
2023/10/02 02:34:47;;;;;;;9.10;5.30;;;;;;;16.28;63.73;97812.66;4838724;29;20329;-84
2023/10/02 02:37:13;;;;;;;8.25;4.97;;;;;;;16.37;64.59;97831.31;4824924;29;20208;-84
2023/10/02 02:39:39;;;;;;;9.32;5.38;;;;;;;16.27;64.08;97802.41;4842358;29;20325;-84
2023/10/02 02:44:43;;;;;;;8.70;5.18;;;;;;;16.06;64.92;97826.09;4854374;29;20245;-84
2023/10/02 02:47:21;;;;;;;9.25;5.82;;;;;;;15.96;65.05;97799.03;4836797;29;20157;-84
2023/10/02 02:49:48;;;;;;;10.38;6.07;;;;;;;16.09;64.93;97820.31;4857337;29;20168;-84
2023/10/02 02:52:32;;;;;;;9.60;5.70;;;;;;;16.09;64.27;97798.50;4841705;29;20192;-85
2023/10/02 02:55:05;;;;;;;8.85;6.15;;;;;;;16.11;64.74;97809.53;4842380;29;20155;-84
2023/10/02 02:57:38;;;;;;;8.65;4.80;;;;;;;16.29;64.64;97824.75;4825994;29;20268;-85
2023/10/02 03:00:29;;;;;;;8.18;5.15;;;;;;;16.22;64.62;97820.81;4841921;29;20659;-84
2023/10/02 03:02:56;;;;;;;10.95;5.45;;;;;;;16.14;64.76;97824.75;4857740;29;20165;-84
2023/10/02 03:05:24;;;;;;;8.23;5.20;;;;;;;16.19;64.83;97830.00;4859980;29;20256;-84
2023/10/02 03:07:54;;;;;;;7.47;5.03;;;;;;;16.16;64.85;97830.56;4864745;29;20288;-84
2023/10/02 03:10:20;;;;;;;8.13;5.07;;;;;;;16.13;64.98;97819.78;4840262;29;20397;-84
2023/10/02 03:12:45;;;;;;;9.77;5.70;;;;;;;16.27;65.00;97824.22;4834635;29;20609;-84
2023/10/02 03:15:19;;;;;;;8.15;5.32;;;;;;;16.33;65.19;97811.06;4823872;29;20260;-84
2023/10/02 03:17:49;;;;;;;10.25;5.60;;;;;;;16.37;64.93;97833.16;4820266;29;20298;-84
2023/10/02 03:20:24;;;;;;;8.82;5.57;;;;;;;16.35;64.82;97812.41;4816378;29;20173;-84
2023/10/02 03:22:53;;;;;;;;;;;;;;;16.62;64.28;97827.84;4845738;29;20332;-84
2023/10/02 03:25:28;;;;;;;8.35;5.22;;;;;;;16.49;64.70;97833.66;4855224;29;20072;-84
2023/10/02 03:27:55;;;;;;;8.98;5.15;;;;;;;16.50;64.47;97818.66;4854548;29;20365;-84
2023/10/02 03:30:38;;;;;;;10.35;5.32;;;;;;;16.46;64.56;97821.03;4839375;29;20664;-84
2023/10/02 03:33:20;;;;;;;8.38;5.20;;;;;;;16.54;63.39;97825.75;4841177;29;20311;-84
2023/10/02 03:36:08;;;;;;;9.55;5.50;;;;;;;16.64;63.24;97832.84;4829358;29;20198;-84
2023/10/02 03:38:43;;;;;;;9.80;5.38;;;;;;;16.46;63.37;97821.81;4851095;29;20569;-83
2023/10/02 03:41:15;;;;;;;8.38;5.25;;;;;;;16.30;63.14;97809.78;4851754;29;20196;-84
2023/10/02 03:43:49;;;;;;;7.90;5.13;;;;;;;16.22;63.18;97808.47;4819778;29;20302;-84
2023/10/02 03:46:35;;;;;;;8.27;5.03;;;;;;;16.36;63.16;97828.94;4824982;29;20661;-84
2023/10/02 03:49:03;;;;;;;9.07;5.47;;;;;;;16.40;62.48;97829.97;4842314;29;20204;-83
2023/10/02 03:51:36;;;;;;;9.07;5.53;;;;;;;16.33;63.01;97829.47;4825303;29;20200;-84
2023/10/02 03:54:17;;;;;;;8.20;4.43;;;;;;;16.41;61.81;97821.84;4841101;29;20248;-84
2023/10/02 03:57:02;;;;;;;9.02;5.10;;;;;;;16.53;62.15;97834.69;4852606;29;20192;-84
2023/10/02 03:59:31;;;;;;;6.78;4.78;;;;;;;16.40;61.08;97812.38;4840442;29;20287;-83
2023/10/02 04:04:43;;;;;;;9.15;5.32;;;;;;;16.15;62.01;97817.69;4840225;29;20562;-84
2023/10/02 04:07:10;;;;;;;8.23;5.20;;;;;;;16.09;62.93;97822.13;4838535;29;20171;-84
2023/10/02 04:09:36;;;;;;;7.43;4.80;;;;;;;16.07;62.73;97813.72;4826260;29;20655;-84
2023/10/02 04:12:04;;;;;;;9.60;5.40;;;;;;;15.99;61.67;97804.56;4820504;29;20174;-84
2023/10/02 04:14:33;;;;;;;9.18;4.97;;;;;;;16.03;61.79;97804.81;4844739;29;20105;-83
2023/10/02 04:19:49;;;;;;;9.03;5.00;;;;;;;15.84;62.26;97810.59;4845093;29;20626;-85
2023/10/02 04:22:25;;;;;;;8.02;5.63;;;;;;;15.83;62.42;97814.25;4845866;29;20161;-84
2023/10/02 04:24:53;;;;;;;9.35;5.45;;;;;;;15.77;62.40;97806.66;4848102;29;20365;-84
2023/10/02 04:28:08;;;;;;;7.45;4.55;;;;;;;15.88;62.49;97814.25;4842495;29;20221;-84
2023/10/02 04:32:49;;;;;;;9.30;5.18;;;;;;;15.90;62.60;97814.81;4860470;29;20173;-84
2023/10/02 04:38:08;;;;;;;8.57;4.85;;;;;;;15.87;63.08;97812.69;4840763;29;20193;-84
2023/10/02 04:40:38;;;;;;;10.20;5.38;;;;;;;15.85;63.02;97806.94;4826290;29;20197;-84
2023/10/02 04:43:19;;;;;;;8.55;5.30;;;;;;;15.93;63.05;97799.56;4856333;29;20189;-84
2023/10/02 04:46:14;;;;;;;9.07;5.20;;;;;;;16.07;62.62;97811.09;4836683;29;20452;-84
2023/10/02 04:48:42;;;;;;;9.65;5.65;;;;;;;15.93;62.39;97804.81;4854813;29;20287;-84
2023/10/02 04:51:08;;;;;;;8.40;5.28;;;;;;;16.01;62.52;97807.69;4828307;29;20288;-84
2023/10/02 04:53:39;;;;;;;8.50;5.10;;;;;;;16.03;62.70;97800.34;4844747;29;20292;-84
2023/10/02 04:56:18;;;;;;;9.10;5.38;;;;;;;16.05;63.17;97807.97;4844736;29;20332;-84
2023/10/02 04:58:49;;;;;;;9.73;5.05;;;;;;;15.96;62.82;97810.34;4851576;29;20233;-84
2023/10/02 05:01:28;;;;;;;8.85;5.72;;;;;;;16.07;62.43;97805.84;4843728;29;20250;-84
2023/10/02 05:03:55;;;;;;;8.40;4.88;;;;;;;16.06;62.65;97812.16;4859759;29;20134;-84
2023/10/02 05:09:19;;;;;;;;;;;;;;;16.26;62.18;97804.28;4860217;29;20181;-85
2023/10/02 05:12:04;;;;;;;9.20;5.40;;;;;;;16.14;62.49;97805.59;4829246;29;20167;-84
2023/10/02 05:14:32;;;;;;;9.57;5.80;;;;;;;16.10;63.34;97800.06;4854292;29;20193;-84
2023/10/02 05:20:04;;;;;;;8.55;5.43;;;;;;;16.11;62.73;97793.78;4825975;29;20644;-84
2023/10/02 05:22:31;;;;;;;10.02;5.65;;;;;;;16.16;62.56;97806.91;4841119;29;20662;-84
2023/10/02 05:24:58;;;;;;;9.35;5.10;;;;;;;16.07;62.86;97803.22;4854993;29;20356;-84
2023/10/02 05:27:31;;;;;;;9.10;5.63;;;;;;;16.03;62.46;97810.06;4854398;29;20271;-84
2023/10/02 05:30:01;;;;;;;10.63;5.80;;;;;;;15.96;63.11;97806.94;4836875;29;20233;-84
2023/10/02 05:32:35;;;;;;;9.80;5.50;;;;;;;15.85;62.78;97803.50;4838409;29;20680;-84
2023/10/02 05:37:34;;;;;;;10.13;5.40;;;;;;;15.89;62.83;97807.19;4826772;29;20150;-83
2023/10/02 05:45:39;;;;;;;9.50;4.95;;;;;;;15.71;63.20;97813.69;4844517;29;20176;-84
2023/10/02 05:50:52;;;;;;;;;;;;;;;15.94;62.48;97822.13;4851148;29;20203;-84
2023/10/02 05:53:19;;;;;;;7.45;4.80;;;;;;;15.78;62.90;97816.91;4851444;29;20170;-84
2023/10/02 05:58:33;;;;;;;10.07;5.20;;;;;;;15.78;62.13;97822.16;4848026;29;20200;-84
2023/10/02 06:01:06;;;;;;;9.00;5.18;;;;;;;15.84;63.14;97831.59;4837392;29;20359;-84
2023/10/02 06:03:36;;;;;;;10.77;5.80;;;;;;;15.86;62.72;97821.63;4835456;29;20358;-84
2023/10/02 06:06:23;;;;;;;9.10;5.22;;;;;;;16.01;62.54;97831.34;4845571;29;20204;-84
2023/10/02 06:09:43;;;;;;;9.02;5.10;;;;;;;15.99;62.85;97827.38;4848832;29;20188;-84
2023/10/02 06:12:02;;;;;;;8.57;5.10;;;;;;;15.96;62.80;97833.19;4858850;29;20216;-84
2023/10/02 06:14:27;;;;;;;9.52;5.50;;;;;;;16.01;63.35;97830.56;4853963;29;20244;-84
2023/10/02 06:16:53;;;;;;;8.18;5.15;;;;;;;16.05;63.33;97834.22;4868798;29;20233;-84
2023/10/02 06:19:19;;;;;;;7.35;4.57;;;;;;;16.01;62.99;97825.31;4848669;29;20225;-84
2023/10/02 06:21:45;;;;;;;9.45;5.10;;;;;;;16.13;63.49;97838.19;4857287;29;20192;-84
2023/10/02 06:24:18;;;;;;;8.95;5.50;;;;;;;16.12;63.76;97824.22;4871364;29;20244;-84
2023/10/02 06:26:55;;;;;;;10.00;5.60;;;;;;;16.21;64.58;97840.25;4852516;29;20279;-85
2023/10/02 06:29:23;;;;;;;9.27;5.45;;;;;;;16.32;64.48;97830.53;4851939;29;20286;-84
2023/10/02 06:31:58;;;;;;;10.35;5.63;;;;;;;16.44;64.00;97839.72;4866473;29;20470;-84
2023/10/02 06:34:36;;;;;;;10.27;5.25;;;;;;;16.51;63.82;97838.66;4836383;29;20109;-86
2023/10/02 06:37:08;;;;;;;8.63;5.50;;;;;;;16.61;64.55;97836.78;4849449;29;20589;-86
2023/10/02 06:39:45;;;;;;;10.05;5.50;;;;;;;16.79;63.59;97837.25;4829635;29;20224;-86
2023/10/02 06:42:12;;;;;;;9.68;5.68;;;;;;;16.90;62.92;97833.56;4838104;29;20209;-84
2023/10/02 06:44:41;;;;;;;8.70;5.25;;;;;;;16.97;63.21;97835.91;4855121;29;20301;-86
2023/10/02 06:47:13;;;;;;;9.80;5.60;;;;;;;17.02;62.84;97834.03;4855666;29;20304;-84
2023/10/02 06:49:44;;;;;;;11.30;6.20;;;;;;;17.07;63.21;97842.97;4829531;29;20655;-84
2023/10/02 06:52:15;;;;;;;11.30;5.15;;;;;;;17.01;63.14;97824.56;4858457;29;20223;-86
2023/10/02 06:54:45;;;;;;;8.23;4.75;;;;;;;17.26;62.28;97835.28;4841604;29;20252;-85
2023/10/02 06:57:15;;;;;;;10.23;6.05;;;;;;;17.38;61.81;97828.59;4822995;29;20636;-84
2023/10/02 06:59:51;;;;;;;10.35;5.72;;;;;;;17.46;61.81;97835.16;4819603;29;20208;-85
2023/10/02 07:02:17;;;;;;;9.52;5.47;;;;;;;17.48;61.67;97826.97;4826595;29;20213;-86
2023/10/02 07:04:44;;;;;;;10.73;5.25;;;;;;;17.35;61.91;97815.22;4842164;29;20279;-86
2023/10/02 07:07:12;;;;;;;9.27;5.88;;;;;;;17.48;62.20;97821.69;4860234;29;20227;-85
2023/10/02 07:09:39;;;;;;;10.43;5.90;;;;;;;17.63;61.71;97829.50;4861010;29;20162;-86
2023/10/02 07:12:08;;;;;;;9.30;5.22;;;;;;;17.79;61.60;97832.81;4843130;29;20259;-86
2023/10/02 07:14:37;;;;;;;9.75;5.35;;;;;;;17.93;61.72;97820.63;4828899;29;20276;-86
2023/10/02 07:17:17;;;;;;;9.25;5.75;;;;;;;18.10;61.34;97822.06;4821773;29;20169;-86
2023/10/02 07:19:48;;;;;;;7.85;5.60;;;;;;;18.30;60.75;97842.16;4863908;29;20035;-86
2023/10/02 07:22:24;;;;;;;9.10;5.28;;;;;;;18.56;60.94;97842.72;4856936;29;20034;-84
2023/10/02 07:24:55;;;;;;;10.57;5.40;;;;;;;18.70;60.86;97843.63;4860777;29;20952;-84
2023/10/02 07:27:28;;;;;;;7.80;4.72;;;;;;;18.77;59.79;97830.09;4856964;29;20027;-87
2023/10/02 07:29:55;;;;;;;9.63;6.15;;;;;;;18.98;60.50;97845.72;4853738;29;20114;-84
2023/10/02 07:32:22;;;;;;;9.88;5.85;;;;;;;19.13;60.11;97842.91;4851791;29;20043;-85
2023/10/02 07:34:50;;;;;;;10.18;5.65;;;;;;;19.34;59.15;97840.78;4865929;29;20062;-87
2023/10/02 07:37:21;;;;;;;9.10;5.90;;;;;;;19.64;59.09;97846.72;4872456;29;20784;-85
2023/10/02 07:39:56;;;;;;;8.07;5.20;;;;;;;19.72;58.48;97838.13;4864195;29;20031;-85
2023/10/02 07:42:31;;;;;;;8.50;5.63;;;;;;;20.02;58.53;97842.19;4852119;29;20082;-85
2023/10/02 07:50:36;;;;;;;9.00;5.63;;;;;;;20.73;56.84;97841.22;4859402;29;20035;-85
2023/10/02 07:53:04;;;;;;;7.88;5.45;;;;;;;20.90;56.53;97844.06;4863746;29;20062;-85
2023/10/02 07:55:31;;;;;;;11.30;6.15;;;;;;;21.14;56.10;97843.06;4874531;29;20091;-85
2023/10/02 07:58:00;;;;;;;10.88;5.47;;;;;;;21.23;55.97;97835.22;4874661;29;20030;-85
2023/10/02 08:00:38;;;;;;;8.35;5.32;;;;;;;21.60;55.65;97843.97;4850549;29;20309;-84
2023/10/02 08:03:09;;;;;;;9.65;5.72;;;;;;;21.96;55.01;97846.56;4840857;29;20250;-84
2023/10/02 08:05:35;;;;;;;11.05;5.93;;;;;;;22.21;54.53;97842.53;4855740;29;20355;-84
2023/10/02 08:08:10;;;;;;;10.25;5.90;;;;;;;22.37;52.86;97832.31;4846992;29;20340;-84
2023/10/02 08:10:53;;;;;;;9.63;5.85;;;;;;;22.60;53.06;97835.72;4852564;29;20196;-84
2023/10/02 08:13:32;;;;;;;10.05;5.90;;;;;;;22.80;51.82;97841.53;4837064;29;20662;-84
2023/10/02 08:16:08;;;;;;;9.95;5.40;;;;;;;22.92;51.93;97839.06;4834572;29;20661;-84
2023/10/02 08:18:55;;;;;;;9.95;5.68;;;;;;;23.05;51.24;97840.06;4837086;29;20368;-84
2023/10/02 08:21:23;;;;;;;10.07;6.32;;;;;;;23.28;51.17;97835.41;4841352;29;20723;-84
2023/10/02 08:23:52;;;;;;;10.40;6.07;;;;;;;23.34;50.35;97831.53;4853157;29;20626;-84
2023/10/02 08:26:21;;;;;;;10.38;6.32;;;;;;;23.51;50.17;97844.03;4837293;29;20726;-84
2023/10/02 08:28:46;;;;;;;10.10;5.93;;;;;;;23.60;50.15;97843.28;4848839;29;20148;-84
2023/10/02 08:31:13;;;;;;;10.90;6.40;;;;;;;23.88;49.57;97852.47;4820720;29;20237;-84
2023/10/02 08:33:43;;;;;;;10.45;5.40;;;;;;;23.87;49.88;97836.84;4819846;29;20276;-85
2023/10/02 08:36:09;;;;;;;9.82;5.82;;;;;;;24.04;49.69;97857.31;4833971;29;20245;-84
2023/10/02 08:38:36;;;;;;;9.85;6.40;;;;;;;23.95;50.07;97846.69;4836523;29;20233;-85
2023/10/02 08:41:06;;;;;;;8.13;5.50;;;;;;;24.19;49.70;97854.16;4809922;29;20372;-84
2023/10/02 08:43:32;;;;;;;10.77;5.97;;;;;;;24.25;49.02;97852.13;4854920;29;20275;-84
2023/10/02 08:45:59;;;;;;;10.00;6.00;;;;;;;24.39;48.93;97854.59;4823284;29;20237;-84
2023/10/02 08:48:25;;;;;;;9.10;6.18;;;;;;;24.31;48.49;97848.19;4838493;29;20236;-84
2023/10/02 08:50:57;;;;;;;10.38;6.65;;;;;;;24.34;49.21;97839.56;4838654;29;20208;-84
2023/10/02 08:53:23;;;;;;;10.63;6.15;;;;;;;24.45;48.46;97835.47;4853941;29;20612;-84
2023/10/02 08:56:01;;;;;;;9.88;6.22;;;;;;;24.60;48.27;97833.38;4834905;29;20306;-84
2023/10/02 08:58:27;;;;;;;10.50;6.43;;;;;;;24.40;49.00;97832.97;4853220;29;20429;-84
2023/10/02 09:01:17;;;;;;;10.55;6.47;;;;;;;24.36;49.90;97833.91;4832188;29;20123;-84
2023/10/02 09:03:48;;;;;;;9.73;6.55;;;;;;;24.52;49.00;97836.84;4842309;29;20796;-84
2023/10/02 09:06:25;;;;;;;10.43;6.10;;;;;;;24.35;49.19;97827.81;4845788;29;20181;-84
2023/10/02 09:09:16;;;;;;;10.13;6.10;;;;;;;24.49;49.38;97847.03;4845377;29;20307;-84
2023/10/02 09:11:45;;;;;;;10.20;6.00;;;;;;;24.50;49.69;97839.81;4822424;29;20685;-84
2023/10/02 09:14:39;;;;;;;11.05;6.97;;;;;;;24.50;49.07;97842.47;4834402;29;20174;-84
2023/10/02 09:17:22;;;;;;;9.35;6.15;;;;;;;24.65;49.14;97841.97;4845613;29;20323;-84
2023/10/02 09:19:54;;;;;;;9.43;6.20;;;;;;;24.94;48.49;97843.09;4824400;29;20299;-84
2023/10/02 09:22:27;;;;;;;11.10;6.78;;;;;;;25.12;47.29;97849.09;4835156;29;20639;-83
2023/10/02 09:24:57;;;;;;;8.43;6.00;;;;;;;25.28;46.93;97848.56;4849786;29;20587;-84
2023/10/02 09:27:28;;;;;;;10.63;6.47;;;;;;;25.49;46.86;97849.31;4844215;29;20424;-83
2023/10/02 09:32:49;;;;;;;12.68;7.50;;;;;;;25.68;45.60;97826.75;4838601;29;20244;-85
2023/10/02 09:35:39;;;;;;;11.50;6.63;;;;;;;26.01;45.17;97828.66;4820808;29;20221;-84
2023/10/02 09:38:16;;;;;;;11.98;6.93;;;;;;;26.13;43.68;97826.81;4842004;29;20296;-84
2023/10/02 09:40:58;;;;;;;12.20;7.13;;;;;;;26.27;42.20;97810.47;4854605;29;20627;-84
2023/10/02 09:43:24;;;;;;;12.40;7.70;;;;;;;26.61;41.69;97819.16;4842221;29;20660;-84
2023/10/02 09:46:06;;;;;;;11.48;7.10;;;;;;;26.84;40.72;97816.09;4838923;29;20200;-83
2023/10/02 09:48:47;;;;;;;12.07;7.15;;;;;;;26.88;39.98;97819.63;4838258;29;20268;-82
2023/10/02 09:51:30;;;;;;;12.23;7.55;;;;;;;27.15;40.56;97820.03;4857674;29;20261;-83
2023/10/02 09:54:14;;;;;;;12.25;6.93;;;;;;;27.24;39.36;97816.09;4840680;29;20339;-83
2023/10/02 09:56:52;;;;;;;9.25;6.55;;;;;;;27.28;38.78;97821.56;4851536;29;20680;-83
2023/10/02 09:59:23;;;;;;;13.10;7.30;;;;;;;27.41;40.39;97812.41;4818691;29;20750;-82
2023/10/02 10:05:22;;;;;;;12.15;7.00;;;;;;;27.83;38.34;97812.03;4837142;29;20261;-81
2023/10/02 10:10:28;;;;;;;12.63;8.00;;;;;;;28.20;36.16;97811.81;4860540;29;20192;-84
2023/10/02 10:13:09;;;;;;;11.90;7.78;;;;;;;28.27;36.58;97799.72;4849258;29;20552;-84
2023/10/02 10:15:37;;;;;;;11.70;7.97;;;;;;;28.49;35.88;97803.69;4839114;29;20750;-86
2023/10/02 10:18:12;;;;;;;11.70;7.90;;;;;;;28.47;36.88;97790.66;4843985;29;20208;-85
2023/10/02 10:20:38;;;;;;;15.77;8.43;;;;;;;28.46;37.63;97780.28;4827740;29;20211;-85
2023/10/02 10:23:31;;;;;;;12.23;8.00;;;;;;;28.79;36.63;97796.00;4827280;29;20174;-85
2023/10/02 10:26:07;;;;;;;10.70;7.25;;;;;;;28.73;36.88;97792.03;4847104;29;20204;-85
2023/10/02 10:28:33;;;;;;;11.95;8.00;;;;;;;28.84;36.69;97790.38;4845304;29;20310;-84
2023/10/02 10:31:01;;;;;;;11.45;7.28;;;;;;;28.83;37.31;97788.81;4839969;29;20184;-85
2023/10/02 10:33:27;;;;;;;12.07;8.38;;;;;;;28.95;37.11;97786.00;4821884;29;20278;-85
2023/10/02 10:35:53;;;;;;;11.30;7.03;;;;;;;28.98;37.66;97776.50;4862801;29;20252;-85
2023/10/02 10:41:00;;;;;;;12.75;7.90;;;;;;;29.25;36.11;97755.19;4858971;29;20724;-85
2023/10/02 10:43:44;;;;;;;14.70;8.18;;;;;;;29.57;34.78;97765.78;4821000;29;20627;-85
2023/10/02 10:46:19;;;;;;;12.88;8.02;;;;;;;29.87;33.59;97760.59;4834414;29;20206;-85
2023/10/02 10:48:48;;;;;;;10.52;7.32;;;;;;;30.13;34.16;97772.53;4837375;29;20246;-85
2023/10/02 10:51:23;;;;;;;15.18;9.20;;;;;;;30.35;34.98;97774.44;4836513;29;20086;-85
2023/10/02 10:53:52;;;;;;;12.80;8.65;;;;;;;30.57;33.28;97770.16;4842603;29;20173;-85
2023/10/02 10:56:18;;;;;;;11.50;8.27;;;;;;;30.85;33.13;97769.00;4843564;29;20224;-85
2023/10/02 10:58:44;;;;;;;13.45;8.88;;;;;;;30.84;33.75;97772.03;4831733;29;20340;-85
2023/10/02 11:01:16;;;;;;;15.57;9.05;;;;;;;30.72;32.91;97771.13;4856497;29;20385;-84
2023/10/02 11:03:43;;;;;;;14.40;9.70;;;;;;;30.91;31.83;97748.69;4851928;29;20571;-86
2023/10/02 11:06:15;;;;;;;13.43;8.57;;;;;;;31.05;32.63;97752.75;4860107;29;20142;-86
2023/10/02 11:08:43;;;;;;;12.18;9.18;;;;;;;31.28;31.81;97763.41;4839983;29;20208;-86
2023/10/02 11:11:18;;;;;;;13.75;9.32;;;;;;;31.70;31.46;97767.69;4842991;29;20097;-86
2023/10/02 11:13:50;;;;;;;;;;;;;;;31.96;30.33;97764.09;4821780;29;20668;-86
2023/10/02 11:16:39;;;;;;;11.10;8.25;;;;;;;32.17;31.21;97763.53;4829124;29;20095;-86
2023/10/02 11:19:13;;;;;;;13.23;9.70;;;;;;;32.38;30.39;97756.75;4824444;29;20318;-85
2023/10/02 11:21:45;;;;;;;12.35;9.48;;;;;;;32.50;30.31;97753.75;4818501;29;20644;-85
2023/10/02 11:24:21;;;;;;;14.52;9.68;;;;;;;32.99;29.15;97739.00;4860530;29;20188;-87
2023/10/02 11:26:47;;;;;;;14.25;9.85;;;;;;;33.18;29.21;97737.16;4862388;29;20200;-87
2023/10/02 11:29:20;;;;;;;11.85;8.85;;;;;;;33.12;29.70;97750.19;4853972;29;20328;-86
2023/10/02 11:34:43;;;;;;;12.27;9.25;;;;;;;33.02;30.31;97718.56;4836287;29;20270;-86
2023/10/02 11:37:13;;;;;;;13.07;9.13;;;;;;;33.08;30.31;97710.91;4857325;29;20288;-86
2023/10/02 11:39:38;;;;;;;14.20;10.32;;;;;;;33.41;29.25;97736.81;4840583;29;20153;-86
2023/10/02 11:42:06;;;;;;;16.17;10.98;;;;;;;33.25;30.00;97714.81;4866213;29;20103;-86
2023/10/02 11:44:34;;;;;;;12.43;9.35;;;;;;;33.39;29.07;97710.22;4834695;29;20249;-86
2023/10/02 11:47:00;;;;;;;12.88;9.55;;;;;;;33.80;28.35;97713.78;4843485;29;20616;-86
2023/10/02 11:49:29;;;;;;;13.00;9.80;;;;;;;33.91;29.23;97709.91;4823645;29;20157;-85
2023/10/02 11:52:02;;;;;;;13.55;9.98;;;;;;;34.10;28.30;97705.25;4854530;29;20210;-86
2023/10/02 11:54:27;;;;;;;13.23;9.18;;;;;;;33.97;29.43;97708.34;4822216;29;20170;-85
2023/10/02 11:56:57;;;;;;;13.13;9.90;;;;;;;33.41;29.17;97707.13;4837252;29;20294;-86
2023/10/02 11:59:23;;;;;;;13.07;9.98;;;;;;;33.57;29.99;97695.97;4853517;29;20663;-86
2023/10/02 12:01:48;;;;;;;12.90;9.07;;;;;;;33.67;29.94;97697.13;4853572;29;20102;-86
2023/10/02 12:04:14;;;;;;;12.02;9.38;;;;;;;33.55;29.25;97673.97;4851743;29;20372;-86
2023/10/02 12:06:40;;;;;;;13.52;10.00;;;;;;;33.94;29.15;97689.44;4821704;29;20546;-86
2023/10/02 12:09:06;;;;;;;11.85;9.63;;;;;;;34.27;30.24;97690.19;4825928;29;20212;-86
2023/10/02 12:11:35;;;;;;;11.63;8.93;;;;;;;34.54;28.16;97674.28;4818222;29;20339;-87
2023/10/02 12:14:02;;;;;;;12.48;10.07;;;;;;;34.83;27.66;97683.06;4837212;29;20227;-86
2023/10/02 12:16:28;;;;;;;13.00;9.63;;;;;;;35.03;28.25;97686.09;4820672;29;20647;-87
2023/10/02 12:18:53;;;;;;;14.02;9.68;;;;;;;35.10;28.09;97679.84;4837955;29;20208;-86
2023/10/02 12:21:21;;;;;;;12.73;9.15;;;;;;;35.11;26.50;97675.97;4847357;29;20173;-87
2023/10/02 12:23:47;;;;;;;11.95;9.70;;;;;;;34.78;27.06;97675.38;4834931;29;20825;-87
2023/10/02 12:26:16;;;;;;;12.68;9.75;;;;;;;34.24;28.08;97653.13;4848579;29;20174;-87
2023/10/02 12:28:43;;;;;;;12.90;9.77;;;;;;;33.36;29.43;97646.19;4834352;29;20331;-86
2023/10/02 12:31:13;;;;;;;11.55;9.35;;;;;;;32.91;30.10;97666.53;4829936;29;20162;-85
2023/10/02 12:33:40;;;;;;;12.82;10.27;;;;;;;32.06;32.17;97644.13;4836249;29;20476;-87
2023/10/02 12:36:17;;;;;;;12.63;9.95;;;;;;;31.92;31.39;97667.09;4837119;29;20769;-85
2023/10/02 12:38:47;;;;;;;14.05;9.88;;;;;;;31.72;32.52;97663.09;4836519;29;20757;-85
2023/10/02 12:41:23;;;;;;;14.50;9.55;;;;;;;31.33;32.11;97656.22;4858500;29;20184;-87
2023/10/02 12:43:56;;;;;;;13.27;9.57;;;;;;;30.95;33.77;97665.44;4825263;29;20113;-86
2023/10/02 12:46:29;;;;;;;12.95;8.80;;;;;;;30.68;34.18;97654.72;4826983;29;20288;-87
2023/10/02 12:48:57;;;;;;;12.00;8.40;;;;;;;30.44;34.17;97642.53;4851497;29;20663;-86
2023/10/02 12:51:23;;;;;;;14.00;9.40;;;;;;;30.32;34.65;97645.41;4851127;29;20208;-87